createdAt,value
2018-06-01T00:00:02.258Z,30.47
2018-06-01T00:01:04.758Z,28.90
2018-06-01T00:02:07.264Z,29.27
2018-06-01T00:03:09.785Z,29.20
2018-06-01T00:04:12.281Z,29.10
2018-06-01T00:05:14.785Z,29.30
2018-06-01T00:06:17.316Z,29.87
2018-06-01T00:07:19.799Z,27.43
2018-06-01T00:08:22.296Z,29.50
2018-06-01T00:09:24.800Z,30.70
2018-06-01T00:10:27.316Z,28.80
2018-06-01T00:11:29.836Z,27.33
2018-06-01T00:12:32.322Z,28.57
2018-06-01T00:13:34.852Z,28.90
2018-06-01T00:14:37.339Z,31.13
2018-06-01T00:15:39.861Z,28.43
2018-06-01T00:16:42.366Z,28.90
2018-06-01T00:17:44.846Z,28.17
2018-06-01T00:18:47.347Z,28.00
2018-06-01T00:19:49.844Z,29.10
2018-06-01T00:20:52.342Z,28.40
2018-06-01T00:21:54.833Z,29.80
2018-06-01T00:22:57.356Z,29.03
2018-06-01T00:23:59.891Z,28.97
2018-06-01T00:25:02.398Z,27.10
2018-06-01T00:26:04.902Z,27.73
2018-06-01T00:27:07.384Z,26.80
2018-06-01T00:28:09.899Z,29.40
2018-06-01T00:29:12.394Z,28.70
2018-06-01T00:30:14.922Z,29.50
2018-06-01T00:31:17.432Z,27.43
2018-06-01T00:32:19.916Z,28.03
2018-06-01T00:33:22.428Z,26.93
2018-06-01T00:34:24.963Z,27.97
2018-06-01T00:35:27.483Z,27.93
2018-06-01T00:36:29.999Z,27.23
2018-06-01T00:37:32.516Z,27.90
2018-06-01T00:38:34.998Z,27.03
2018-06-01T00:39:37.498Z,27.10
2018-06-01T00:40:40.004Z,27.70
2018-06-01T00:41:42.525Z,28.80
2018-06-01T00:42:45.015Z,28.50
2018-06-01T00:43:47.509Z,28.77
2018-06-01T00:44:50.015Z,28.57
2018-06-01T00:45:52.498Z,27.50
2018-06-01T00:46:54.991Z,27.73
2018-06-01T00:47:57.470Z,27.97
2018-06-01T00:48:59.984Z,28.60
2018-06-01T00:50:02.490Z,28.40
2018-06-01T00:51:04.990Z,28.00
2018-06-01T00:52:07.473Z,25.97
2018-06-01T00:53:09.990Z,28.03
2018-06-01T00:54:12.482Z,27.73
2018-06-01T00:55:24.920Z,28.60
2018-06-01T00:56:27.421Z,27.70
2018-06-01T00:57:30.730Z,27.17
2018-06-01T00:58:33.219Z,26.33
2018-06-01T00:59:35.722Z,24.87
2018-06-01T01:00:38.259Z,28.40
2018-06-01T01:01:40.756Z,27.80
2018-06-01T01:02:43.257Z,27.47
2018-06-01T01:03:45.758Z,26.23
2018-06-01T01:04:48.267Z,27.17
2018-06-01T01:05:50.770Z,26.37
2018-06-01T01:06:53.285Z,27.33
2018-06-01T01:07:55.814Z,28.40
2018-06-01T01:08:58.320Z,25.93
2018-06-01T01:10:00.807Z,25.50
2018-06-01T01:11:03.343Z,26.83
2018-06-01T01:12:05.884Z,27.27
2018-06-01T01:13:08.414Z,27.07
2018-06-01T01:14:10.928Z,26.77
2018-06-01T01:15:13.428Z,26.97
2018-06-01T01:16:15.952Z,27.27
2018-06-01T01:17:19.384Z,25.40
2018-06-01T01:18:21.881Z,27.67
2018-06-01T01:19:24.358Z,27.33
2018-06-01T01:20:26.857Z,26.27
2018-06-01T01:21:29.383Z,27.43
2018-06-01T01:22:31.912Z,25.40
2018-06-01T01:23:34.582Z,26.80
2018-06-01T01:24:37.141Z,26.70
2018-06-01T01:25:39.636Z,25.20
2018-06-01T01:26:42.180Z,27.60
2018-06-01T01:27:44.704Z,27.40
2018-06-01T01:28:47.214Z,26.43
2018-06-01T01:29:49.752Z,26.80
2018-06-01T01:30:52.271Z,26.30
2018-06-01T01:31:54.807Z,27.50
2018-06-01T01:32:57.322Z,27.37
2018-06-01T01:33:59.804Z,26.80
2018-06-01T01:35:02.284Z,25.70
2018-06-01T01:36:04.766Z,25.23
2018-06-01T01:37:07.267Z,25.77
2018-06-01T01:38:09.775Z,26.13
2018-06-01T01:39:12.281Z,25.30
2018-06-01T01:40:14.812Z,25.10
2018-06-01T01:41:17.529Z,26.60
2018-06-01T01:42:20.041Z,27.20
2018-06-01T01:43:22.526Z,26.23
2018-06-01T01:44:25.044Z,25.00
2018-06-01T01:45:27.534Z,26.23
2018-06-01T01:46:30.030Z,26.50
2018-06-01T01:47:32.543Z,25.47
2018-06-01T01:48:35.031Z,25.33
2018-06-01T01:49:37.533Z,25.30
2018-06-01T01:50:40.049Z,25.80
2018-06-01T01:51:42.561Z,26.20
2018-06-01T01:52:45.085Z,24.73
2018-06-01T01:53:47.624Z,25.90
2018-06-01T01:54:50.164Z,25.27
2018-06-01T01:55:52.650Z,25.90
2018-06-01T01:56:55.149Z,24.90
2018-06-01T01:57:57.677Z,25.50
2018-06-01T01:59:00.177Z,24.90
2018-06-01T02:00:02.688Z,25.30
2018-06-01T02:01:05.174Z,25.50
2018-06-01T02:02:07.662Z,24.77
2018-06-01T02:03:10.176Z,24.70
2018-06-01T02:04:12.669Z,25.97
2018-06-01T02:05:15.194Z,25.40
2018-06-01T02:06:17.714Z,23.97
2018-06-01T02:07:20.245Z,24.77
2018-06-01T02:08:22.780Z,24.73
2018-06-01T02:09:25.281Z,25.07
2018-06-01T02:10:27.780Z,23.60
2018-06-01T02:11:30.262Z,26.93
2018-06-01T02:12:32.751Z,24.70
2018-06-01T02:13:35.246Z,26.10
2018-06-01T02:14:37.756Z,24.30
2018-06-01T02:15:40.242Z,24.87
2018-06-01T02:16:42.757Z,25.13
2018-06-01T02:17:45.247Z,24.40
2018-06-01T02:18:47.761Z,23.53
2018-06-01T02:19:50.261Z,24.40
2018-06-01T02:20:52.757Z,24.03
2018-06-01T02:21:55.297Z,24.40
2018-06-01T02:22:57.797Z,24.13
2018-06-01T02:24:00.316Z,26.27
2018-06-01T02:25:02.824Z,25.70
2018-06-01T02:26:05.343Z,25.10
2018-06-01T02:27:07.881Z,24.23
2018-06-01T02:28:10.377Z,23.57
2018-06-01T02:29:12.957Z,24.90
2018-06-01T02:30:15.458Z,24.50
2018-06-01T02:31:17.943Z,23.30
2018-06-01T02:32:20.426Z,24.90
2018-06-01T02:33:22.932Z,24.43
2018-06-01T02:34:25.454Z,23.23
2018-06-01T02:35:27.972Z,23.43
2018-06-01T02:36:30.490Z,24.67
2018-06-01T02:37:33.017Z,24.17
2018-06-01T02:38:35.510Z,24.53
2018-06-01T02:39:38.046Z,24.70
2018-06-01T02:40:41.722Z,23.47
2018-06-01T02:41:44.238Z,23.83
2018-06-01T02:42:46.724Z,23.63
2018-06-01T02:43:49.217Z,23.87
2018-06-01T02:44:51.738Z,23.73
2018-06-01T02:45:54.241Z,24.17
2018-06-01T02:46:56.740Z,22.03
2018-06-01T02:47:59.239Z,24.07
2018-06-01T02:49:01.745Z,25.10
2018-06-01T02:50:04.267Z,23.73
2018-06-01T02:51:06.784Z,23.30
2018-06-01T02:52:09.294Z,24.30
2018-06-01T02:53:11.794Z,23.00
2018-06-01T02:54:14.297Z,24.67
2018-06-01T02:55:16.808Z,24.43
2018-06-01T02:56:19.300Z,23.33
2018-06-01T02:57:21.800Z,22.80
2018-06-01T02:58:24.301Z,23.17
2018-06-01T02:59:26.804Z,22.20
2018-06-01T03:00:29.325Z,23.63
2018-06-01T03:01:31.846Z,23.40
2018-06-01T03:02:34.337Z,23.50
2018-06-01T03:03:37.171Z,22.30
2018-06-01T03:04:39.709Z,24.00
2018-06-01T03:05:42.312Z,24.50
2018-06-01T03:06:56.613Z,22.97
2018-06-01T03:07:59.109Z,22.07
2018-06-01T03:09:01.609Z,21.93
2018-06-01T03:10:04.131Z,23.30
2018-06-01T03:11:06.634Z,22.07
2018-06-01T03:12:09.168Z,23.80
2018-06-01T03:13:11.733Z,22.40
2018-06-01T03:14:14.205Z,23.47
2018-06-01T03:15:16.709Z,23.00
2018-06-01T03:16:19.223Z,23.77
2018-06-01T03:17:21.723Z,23.80
2018-06-01T03:18:24.207Z,23.03
2018-06-01T03:19:26.720Z,22.70
2018-06-01T03:20:29.210Z,21.43
2018-06-01T03:21:31.755Z,22.93
2018-06-01T03:22:34.275Z,23.60
2018-06-01T03:23:36.794Z,22.60
2018-06-01T03:24:39.349Z,21.37
2018-06-01T03:25:41.917Z,21.43
2018-06-01T03:26:44.451Z,24.50
2018-06-01T03:27:48.595Z,22.73
2018-06-01T03:28:51.091Z,21.50
2018-06-01T03:29:53.589Z,23.20
2018-06-01T03:30:56.103Z,22.07
2018-06-01T03:31:58.627Z,22.13
2018-06-01T03:33:01.161Z,23.10
2018-06-01T03:34:03.664Z,22.50
2018-06-01T03:35:06.161Z,23.60
2018-06-01T03:36:08.661Z,23.90
2018-06-01T03:37:11.154Z,22.20
2018-06-01T03:38:13.665Z,22.10
2018-06-01T03:39:16.176Z,21.97
2018-06-01T03:40:18.683Z,22.40
2018-06-01T03:41:21.217Z,21.77
2018-06-01T03:42:23.752Z,22.63
2018-06-01T03:43:26.242Z,22.27
2018-06-01T03:44:28.741Z,21.80
2018-06-01T03:45:31.257Z,22.13
2018-06-01T03:46:33.738Z,22.30
2018-06-01T03:47:36.245Z,22.43
2018-06-01T03:48:38.730Z,23.10
2018-06-01T03:49:41.575Z,22.00
2018-06-01T03:50:44.177Z,21.97
2018-06-01T03:51:46.699Z,21.40
2018-06-01T03:52:49.231Z,22.33
2018-06-01T03:53:51.736Z,22.13
2018-06-01T03:54:54.249Z,22.40
2018-06-01T03:55:56.778Z,21.40
2018-06-01T03:57:00.044Z,21.70
2018-06-01T03:58:02.584Z,21.03
2018-06-01T03:59:05.083Z,21.10
2018-06-01T04:00:07.595Z,20.80
2018-06-01T04:01:10.148Z,21.90
2018-06-01T04:02:12.712Z,22.33
2018-06-01T04:03:15.235Z,21.10
2018-06-01T04:04:17.752Z,22.90
2018-06-01T04:05:20.291Z,21.10
2018-06-01T04:06:23.292Z,21.70
2018-06-01T04:07:25.810Z,19.67
2018-06-01T04:08:28.975Z,21.40
2018-06-01T04:09:31.507Z,21.30
2018-06-01T04:10:34.019Z,21.20
2018-06-01T04:11:36.502Z,20.90
2018-06-01T04:12:39.029Z,21.13
2018-06-01T04:13:41.534Z,21.50
2018-06-01T04:14:44.104Z,21.23
2018-06-01T04:15:47.525Z,20.80
2018-06-01T04:16:50.035Z,20.87
2018-06-01T04:17:53.044Z,20.80
2018-06-01T04:18:55.566Z,21.00
2018-06-01T04:19:58.050Z,21.67
2018-06-01T04:21:00.598Z,20.73
2018-06-01T04:22:03.109Z,20.70
2018-06-01T04:23:05.595Z,20.50
2018-06-01T04:24:08.109Z,20.07
2018-06-01T04:25:10.624Z,19.70
2018-06-01T04:26:13.143Z,20.10
2018-06-01T04:27:16.574Z,19.83
2018-06-01T04:28:19.063Z,20.10
2018-06-01T04:29:21.594Z,19.57
2018-06-01T04:30:24.108Z,19.77
2018-06-01T04:31:26.601Z,21.77
2018-06-01T04:32:29.088Z,19.10
2018-06-01T04:33:31.570Z,19.43
2018-06-01T04:34:34.127Z,20.50
2018-06-01T04:35:36.638Z,21.27
2018-06-01T04:36:39.154Z,19.80
2018-06-01T04:37:41.678Z,19.83
2018-06-01T04:38:44.170Z,19.67
2018-06-01T04:39:46.677Z,20.60
2018-06-01T04:40:49.195Z,19.70
2018-06-01T04:41:51.697Z,19.80
2018-06-01T04:42:54.178Z,19.90
2018-06-01T04:43:56.676Z,19.47
2018-06-01T04:44:59.194Z,20.50
2018-06-01T04:46:01.691Z,20.27
2018-06-01T04:47:04.195Z,19.73
2018-06-01T04:48:06.768Z,19.93
2018-06-01T04:49:09.345Z,21.00
2018-06-01T04:50:11.836Z,20.47
2018-06-01T04:51:14.322Z,19.73
2018-06-01T04:52:16.821Z,19.70
2018-06-01T04:53:19.377Z,20.90
2018-06-01T04:54:21.892Z,19.47
2018-06-01T04:55:24.427Z,19.80
2018-06-01T04:56:26.925Z,19.83
2018-06-01T04:57:29.435Z,18.73
2018-06-01T04:58:31.929Z,19.50
2018-06-01T04:59:34.448Z,19.60
2018-06-01T05:00:36.953Z,19.87
2018-06-01T05:01:39.463Z,19.83
2018-06-01T05:02:41.960Z,19.23
2018-06-01T05:03:44.449Z,19.90
2018-06-01T05:04:46.959Z,19.67
2018-06-01T05:05:49.491Z,19.90
2018-06-01T05:06:51.983Z,18.40
2018-06-01T05:07:54.477Z,18.50
2018-06-01T05:08:56.990Z,18.30
2018-06-01T05:09:59.481Z,19.47
2018-06-01T05:11:02.005Z,19.57
2018-06-01T05:12:04.504Z,19.10
2018-06-01T05:13:07.040Z,19.00
2018-06-01T05:14:09.537Z,18.93
2018-06-01T05:15:12.037Z,19.50
2018-06-01T05:16:14.571Z,19.23
2018-06-01T05:17:17.061Z,19.30
2018-06-01T05:18:19.577Z,18.83
2018-06-01T05:19:22.059Z,18.70
2018-06-01T05:20:24.562Z,18.33
2018-06-01T05:21:27.094Z,20.07
2018-06-01T05:22:29.593Z,19.07
2018-06-01T05:23:32.093Z,18.30
2018-06-01T05:24:34.610Z,19.13
2018-06-01T05:25:37.127Z,18.13
2018-06-01T05:26:39.666Z,19.20
2018-06-01T05:27:42.243Z,18.27
2018-06-01T05:28:44.725Z,18.73
2018-06-01T05:29:47.237Z,18.70
2018-06-01T05:30:49.755Z,17.87
2018-06-01T05:31:52.281Z,18.60
2018-06-01T05:32:54.767Z,19.50
2018-06-01T05:33:57.287Z,18.33
2018-06-01T05:34:59.837Z,18.63
2018-06-01T05:36:02.349Z,18.83
2018-06-01T05:37:04.857Z,18.20
2018-06-01T05:38:07.356Z,18.67
2018-06-01T05:39:09.851Z,18.70
2018-06-01T05:40:12.360Z,18.80
2018-06-01T05:41:14.879Z,18.30
2018-06-01T05:42:17.394Z,17.50
2018-06-01T05:43:19.875Z,17.60
2018-06-01T05:44:22.369Z,17.10
2018-06-01T05:45:24.863Z,18.07
2018-06-01T05:46:27.361Z,17.73
2018-06-01T05:47:29.908Z,18.40
2018-06-01T05:48:32.410Z,17.47
2018-06-01T05:49:34.899Z,18.27
2018-06-01T05:50:37.386Z,17.30
2018-06-01T05:51:39.867Z,18.07
2018-06-01T05:52:42.378Z,18.13
2018-06-01T05:53:44.862Z,18.00
2018-06-01T05:54:47.347Z,19.43
2018-06-01T05:55:49.827Z,18.23
2018-06-01T05:56:52.341Z,18.03
2018-06-01T05:57:54.876Z,19.17
2018-06-01T05:58:57.384Z,19.00
2018-06-01T05:59:59.901Z,18.30
2018-06-01T06:01:02.387Z,19.43
2018-06-01T06:02:04.874Z,18.27
2018-06-01T06:03:07.371Z,18.23
2018-06-01T06:04:09.854Z,18.37
2018-06-01T06:05:12.371Z,17.40
2018-06-01T06:06:14.871Z,18.37
2018-06-01T06:07:17.373Z,17.80
2018-06-01T06:08:19.890Z,18.10
2018-06-01T06:09:22.414Z,17.63
2018-06-01T06:10:24.935Z,17.67
2018-06-01T06:11:27.432Z,17.33
2018-06-01T06:12:29.913Z,18.20
2018-06-01T06:13:32.466Z,18.07
2018-06-01T06:14:34.940Z,17.33
2018-06-01T06:15:37.427Z,18.33
2018-06-01T06:16:39.935Z,18.37
2018-06-01T06:17:42.440Z,17.60
2018-06-01T06:18:44.975Z,17.50
2018-06-01T06:19:47.498Z,17.60
2018-06-01T06:20:50.004Z,18.40
2018-06-01T06:21:52.498Z,18.17
2018-06-01T06:22:54.996Z,17.57
2018-06-01T06:23:57.528Z,17.80
2018-06-01T06:25:00.015Z,17.03
2018-06-01T06:26:02.514Z,17.50
2018-06-01T06:27:05.009Z,17.00
2018-06-01T06:28:07.564Z,19.00
2018-06-01T06:29:10.126Z,17.20
2018-06-01T06:30:12.634Z,17.20
2018-06-01T06:31:15.138Z,18.00
2018-06-01T06:32:17.656Z,16.50
2018-06-01T06:33:20.165Z,17.30
2018-06-01T06:34:22.685Z,16.57
2018-06-01T06:35:25.170Z,16.37
2018-06-01T06:36:27.732Z,17.73
2018-06-01T06:37:30.182Z,18.30
2018-06-01T06:38:32.685Z,18.07
2018-06-01T06:39:35.217Z,16.77
2018-06-01T06:40:37.699Z,18.10
2018-06-01T06:41:40.212Z,16.83
2018-06-01T06:42:42.723Z,18.13
2018-06-01T06:43:45.243Z,17.40
2018-06-01T06:44:47.742Z,16.97
2018-06-01T06:45:50.239Z,17.60
2018-06-01T06:46:52.750Z,16.80
2018-06-01T06:47:55.253Z,17.13
2018-06-01T06:48:57.738Z,17.17
2018-06-01T06:50:00.238Z,16.50
2018-06-01T06:51:02.719Z,16.57
2018-06-01T06:52:05.235Z,16.90
2018-06-01T06:53:07.729Z,16.90
2018-06-01T06:54:10.235Z,17.63
2018-06-01T06:55:12.771Z,16.77
2018-06-01T06:56:15.274Z,17.17
2018-06-01T06:57:17.760Z,18.73
2018-06-01T06:58:20.280Z,16.40
2018-06-01T06:59:22.768Z,18.07
2018-06-01T07:00:25.305Z,18.73
2018-06-01T07:01:27.786Z,19.17
2018-06-01T07:02:30.300Z,16.27
2018-06-01T07:03:32.801Z,18.80
2018-06-01T07:04:35.287Z,17.87
2018-06-01T07:05:37.791Z,17.20
2018-06-01T07:06:40.289Z,16.47
2018-06-01T07:07:42.775Z,17.30
2018-06-01T07:08:45.273Z,16.07
2018-06-01T07:09:47.769Z,16.73
2018-06-01T07:10:50.330Z,17.13
2018-06-01T07:11:52.810Z,16.83
2018-06-01T07:12:55.302Z,16.70
2018-06-01T07:13:57.800Z,16.10
2018-06-01T07:15:00.322Z,17.30
2018-06-01T07:16:02.842Z,18.13
2018-06-01T07:17:05.353Z,17.30
2018-06-01T07:18:07.853Z,18.07
2018-06-01T07:19:10.337Z,19.10
2018-06-01T07:20:12.840Z,19.50
2018-06-01T07:21:15.380Z,20.87
2018-06-01T07:22:17.867Z,21.10
2018-06-01T07:23:20.459Z,21.17
2018-06-01T07:24:22.957Z,20.60
2018-06-01T07:25:25.493Z,21.23
2018-06-01T07:26:27.992Z,21.87
2018-06-01T07:27:30.543Z,20.97
2018-06-01T07:28:33.638Z,20.83
2018-06-01T07:29:36.159Z,20.97
2018-06-01T07:30:38.662Z,20.63
2018-06-01T07:31:41.183Z,21.40
2018-06-01T07:32:43.695Z,20.63
2018-06-01T07:33:46.226Z,19.10
2018-06-01T07:34:48.733Z,19.93
2018-06-01T07:35:51.218Z,21.67
2018-06-01T07:36:53.738Z,23.07
2018-06-01T07:37:56.255Z,23.30
2018-06-01T07:38:58.738Z,21.50
2018-06-01T07:40:01.238Z,21.33
2018-06-01T07:41:03.792Z,21.30
2018-06-01T07:42:06.309Z,22.70
2018-06-01T07:43:08.820Z,21.60
2018-06-01T07:44:11.310Z,21.90
2018-06-01T07:45:13.805Z,22.40
2018-06-01T07:46:16.319Z,23.57
2018-06-01T07:47:18.840Z,22.37
2018-06-01T07:48:21.337Z,21.10
2018-06-01T07:49:23.836Z,21.10
2018-06-01T07:50:26.338Z,21.23
2018-06-01T07:51:28.848Z,21.20
2018-06-01T07:52:31.369Z,20.10
2018-06-01T07:53:33.893Z,18.67
2018-06-01T07:54:36.442Z,18.63
2018-06-01T07:55:38.907Z,19.03
2018-06-01T07:56:41.394Z,17.93
2018-06-01T07:57:43.920Z,17.80
2018-06-01T07:58:46.431Z,16.60
2018-06-01T07:59:48.947Z,14.83
2018-06-01T08:00:51.540Z,14.60
2018-06-01T08:01:54.022Z,14.20
2018-06-01T08:02:56.563Z,13.50
2018-06-01T08:03:59.069Z,13.87
2018-06-01T08:05:01.580Z,12.43
2018-06-01T08:06:04.066Z,12.70
2018-06-01T08:07:06.565Z,12.77
2018-06-01T08:08:09.085Z,11.43
2018-06-01T08:09:11.945Z,12.10
2018-06-01T08:10:14.421Z,11.63
2018-06-01T08:11:16.902Z,12.70
2018-06-01T08:12:19.411Z,11.90
2018-06-01T08:13:21.945Z,11.27
2018-06-01T08:14:24.433Z,11.20
2018-06-01T08:15:26.944Z,10.77
2018-06-01T08:16:29.443Z,10.13
2018-06-01T08:17:31.935Z,9.73
2018-06-01T08:18:34.472Z,9.70
2018-06-01T08:19:36.971Z,9.80
2018-06-01T08:20:38.769Z,10.33
2018-06-01T08:21:41.255Z,10.07
2018-06-01T08:22:43.753Z,10.43
2018-06-01T08:23:46.284Z,9.63
2018-06-01T08:24:48.785Z,8.90
2018-06-01T08:25:51.277Z,9.50
2018-06-01T08:26:53.827Z,10.73
2018-06-01T08:27:56.298Z,8.90
2018-06-01T08:28:58.795Z,10.00
2018-06-01T08:30:01.275Z,10.93
2018-06-01T08:31:03.777Z,10.03
2018-06-01T08:32:06.858Z,10.23
2018-06-01T08:33:09.373Z,9.80
2018-06-01T08:34:11.874Z,8.90
2018-06-01T08:35:14.459Z,9.07
2018-06-01T08:36:16.953Z,8.97
2018-06-01T08:37:19.476Z,8.90
2018-06-01T08:38:21.977Z,9.47
2018-06-01T08:39:24.524Z,9.60
2018-06-01T08:40:27.031Z,9.37
2018-06-01T08:41:29.552Z,9.60
2018-06-01T08:42:32.053Z,9.37
2018-06-01T08:43:34.567Z,10.07
2018-06-01T08:44:37.066Z,9.80
2018-06-01T08:45:39.564Z,8.40
2018-06-01T08:46:42.076Z,8.70
2018-06-01T08:47:44.539Z,9.70
2018-06-01T08:48:47.042Z,9.00
2018-06-01T08:49:49.552Z,8.87
2018-06-01T08:50:52.036Z,9.03
2018-06-01T08:51:54.537Z,10.60
2018-06-01T08:52:57.041Z,9.60
2018-06-01T08:53:59.544Z,10.03
2018-06-01T08:55:02.065Z,8.97
2018-06-01T08:56:04.548Z,9.97
2018-06-01T08:57:07.072Z,9.10
2018-06-01T08:58:09.569Z,9.90
2018-06-01T08:59:12.129Z,10.00
2018-06-01T09:00:14.638Z,10.20
2018-06-01T09:01:17.120Z,9.57
2018-06-01T09:02:19.622Z,10.00
2018-06-01T09:03:22.131Z,9.80
2018-06-01T09:04:24.633Z,10.57
2018-06-01T09:05:27.161Z,10.50
2018-06-01T09:06:29.657Z,11.60
2018-06-01T09:07:32.179Z,10.53
2018-06-01T09:08:34.692Z,11.33
2018-06-01T09:09:37.189Z,10.63
2018-06-01T09:10:39.708Z,12.23
2018-06-01T09:11:42.223Z,10.80
2018-06-01T09:12:44.725Z,10.43
2018-06-01T09:13:47.220Z,11.10
2018-06-01T09:14:49.716Z,10.83
2018-06-01T09:15:52.227Z,12.07
2018-06-01T09:16:54.740Z,11.20
2018-06-01T09:17:57.249Z,11.30
2018-06-01T09:18:59.749Z,11.97
2018-06-01T09:20:02.253Z,10.57
2018-06-01T09:21:04.769Z,10.33
2018-06-01T09:22:07.264Z,10.20
2018-06-01T09:23:09.773Z,10.97
2018-06-01T09:24:12.294Z,10.23
2018-06-01T09:25:14.803Z,11.80
2018-06-01T09:26:17.321Z,10.37
2018-06-01T09:27:19.826Z,11.07
2018-06-01T09:28:22.374Z,10.90
2018-06-01T09:29:24.846Z,11.10
2018-06-01T09:30:27.352Z,11.70
2018-06-01T09:31:29.872Z,10.83
2018-06-01T09:32:32.358Z,10.93
2018-06-01T09:33:34.855Z,10.53
2018-06-01T09:34:37.353Z,10.60
2018-06-01T09:35:39.858Z,12.13
2018-06-01T09:36:42.377Z,10.70
2018-06-01T09:37:44.877Z,11.03
2018-06-01T09:38:47.358Z,12.47
2018-06-01T09:39:49.853Z,11.93
2018-06-01T09:40:52.380Z,11.77
2018-06-01T09:41:54.893Z,12.87
2018-06-01T09:42:57.381Z,12.90
2018-06-01T09:43:59.881Z,11.50
2018-06-01T09:45:02.384Z,12.80
2018-06-01T09:46:04.876Z,12.03
2018-06-01T09:47:07.392Z,11.53
2018-06-01T09:48:09.894Z,12.40
2018-06-01T09:49:12.397Z,12.60
2018-06-01T09:50:15.711Z,13.17
2018-06-01T09:51:18.278Z,12.70
2018-06-01T09:52:20.797Z,12.13
2018-06-01T09:53:23.453Z,12.30
2018-06-01T09:54:26.056Z,13.23
2018-06-01T09:55:28.912Z,12.93
2018-06-01T09:56:31.481Z,12.97
2018-06-01T09:57:34.100Z,13.50
2018-06-01T09:58:36.635Z,13.20
2018-06-01T09:59:39.191Z,14.07
2018-06-01T10:00:47.473Z,13.90
2018-06-01T10:01:50.173Z,13.03
2018-06-01T10:02:52.742Z,13.57
2018-06-01T10:03:55.646Z,13.60
2018-06-01T10:04:58.245Z,13.00
2018-06-01T10:06:00.839Z,14.27
2018-06-01T10:07:03.738Z,13.87
2018-06-01T10:08:06.366Z,12.73
2018-06-01T10:09:09.723Z,13.33
2018-06-01T10:10:17.869Z,14.17
2018-06-01T10:11:20.898Z,14.20
2018-06-01T10:12:23.461Z,14.50
2018-06-01T10:13:26.161Z,13.80
2018-06-01T10:14:29.106Z,13.83
2018-06-01T10:15:31.818Z,13.40
2018-06-01T10:16:34.456Z,13.43
2018-06-01T10:17:37.837Z,12.60
2018-06-01T10:18:40.461Z,14.10
2018-06-01T10:19:43.174Z,13.47
2018-06-01T10:20:46.549Z,12.80
2018-06-01T10:21:49.069Z,13.43
2018-06-01T10:22:51.625Z,12.70
2018-06-01T10:23:54.315Z,13.03
2018-06-01T10:24:57.193Z,13.50
2018-06-01T10:25:59.805Z,13.87
2018-06-01T10:27:02.406Z,14.57
2018-06-01T10:28:05.161Z,14.70
2018-06-01T10:29:08.223Z,12.97
2018-06-01T10:30:10.914Z,12.63
2018-06-01T10:31:13.462Z,12.80
2018-06-01T10:32:16.747Z,13.67
2018-06-01T10:33:19.350Z,12.80
2018-06-01T10:34:21.938Z,12.50
2018-06-01T10:35:24.546Z,13.50
2018-06-01T10:36:27.067Z,13.00
2018-06-01T10:37:29.731Z,13.20
2018-06-01T10:38:32.828Z,12.90
2018-06-01T10:39:35.386Z,12.30
2018-06-01T10:40:38.204Z,13.10
2018-06-01T10:41:40.765Z,12.83
2018-06-01T10:42:43.350Z,12.83
2018-06-01T10:43:46.342Z,12.53
2018-06-01T10:44:48.878Z,13.23
2018-06-01T10:45:51.481Z,12.60
2018-06-01T10:46:54.437Z,12.60
2018-06-01T10:47:57.094Z,13.43
2018-06-01T10:48:59.965Z,13.97
2018-06-01T10:50:02.731Z,13.17
2018-06-01T10:51:05.291Z,12.23
2018-06-01T10:52:07.845Z,12.17
2018-06-01T10:53:10.818Z,12.10
2018-06-01T10:54:13.349Z,12.07
2018-06-01T10:55:15.982Z,11.67
2018-06-01T10:56:18.537Z,12.33
2018-06-01T10:57:21.040Z,12.00
2018-06-01T10:58:23.548Z,11.90
2018-06-01T10:59:26.083Z,13.10
2018-06-01T11:00:28.589Z,11.77
2018-06-01T11:01:31.108Z,12.77
2018-06-01T11:02:33.609Z,11.93
2018-06-01T11:03:36.120Z,11.70
2018-06-01T11:04:38.619Z,12.37
2018-06-01T11:05:41.116Z,11.40
2018-06-01T11:06:43.617Z,12.43
2018-06-01T11:07:46.113Z,13.10
2018-06-01T11:08:48.613Z,14.73
2018-06-01T11:09:51.144Z,14.13
2018-06-01T11:10:53.630Z,16.30
2018-06-01T11:11:56.155Z,17.17
2018-06-01T11:12:58.671Z,17.67
2018-06-01T11:14:01.200Z,20.37
2018-06-01T11:15:03.700Z,21.00
2018-06-01T11:16:06.186Z,21.53
2018-06-01T11:17:08.672Z,23.00
2018-06-01T11:18:11.183Z,23.83
2018-06-01T11:19:13.686Z,25.20
2018-06-01T11:20:16.165Z,26.20
2018-06-01T11:21:18.735Z,27.67
2018-06-01T11:22:21.213Z,27.90
2018-06-01T11:23:23.705Z,31.00
2018-06-01T11:24:26.238Z,29.23
2018-06-01T11:25:28.726Z,29.60
2018-06-01T11:26:31.373Z,29.33
2018-06-01T11:27:33.890Z,27.70
2018-06-01T11:28:36.394Z,28.93
2018-06-01T11:29:38.879Z,28.80
2018-06-01T11:30:41.391Z,29.33
2018-06-01T11:31:43.882Z,29.20
2018-06-01T11:32:46.445Z,28.43
2018-06-01T11:33:48.938Z,30.80
2018-06-01T11:34:51.433Z,30.37
2018-06-01T11:35:53.960Z,28.50
2018-06-01T11:36:56.613Z,30.17
2018-06-01T11:37:59.134Z,30.47
2018-06-01T11:39:01.646Z,31.20
2018-06-01T11:40:04.153Z,30.37
2018-06-01T11:41:06.667Z,28.07
2018-06-01T11:42:09.175Z,29.77
2018-06-01T11:43:11.693Z,29.90
2018-06-01T11:44:14.180Z,29.43
2018-06-01T11:45:16.703Z,29.73
2018-06-01T11:46:19.205Z,30.43
2018-06-01T11:47:21.723Z,30.30
2018-06-01T11:48:24.259Z,30.30
2018-06-01T11:49:26.769Z,30.47
2018-06-01T11:50:29.267Z,29.97
2018-06-01T11:51:31.769Z,30.20
2018-06-01T11:52:34.265Z,30.33
2018-06-01T11:53:36.762Z,29.27
2018-06-01T11:54:39.262Z,31.20
2018-06-01T11:55:41.796Z,30.53
2018-06-01T11:56:44.311Z,30.40
2018-06-01T11:57:46.839Z,34.00
2018-06-01T11:58:49.355Z,32.73
2018-06-01T11:59:51.846Z,31.93
2018-06-01T12:00:54.363Z,32.47
2018-06-01T12:01:56.861Z,32.50
2018-06-01T12:02:59.382Z,31.20
2018-06-01T12:04:01.899Z,31.80
2018-06-01T12:05:04.422Z,31.87
2018-06-01T12:06:06.941Z,32.63
2018-06-01T12:07:09.445Z,32.10
2018-06-01T12:08:11.948Z,32.40
2018-06-01T12:09:14.450Z,30.03
2018-06-01T12:10:16.963Z,30.90
2018-06-01T12:11:19.446Z,31.43
2018-06-01T12:12:21.982Z,31.90
2018-06-01T12:13:24.474Z,30.67
2018-06-01T12:14:26.974Z,30.63
2018-06-01T12:15:29.473Z,32.57
2018-06-01T12:16:31.987Z,31.57
2018-06-01T12:17:34.520Z,30.87
2018-06-01T12:18:37.033Z,30.40
2018-06-01T12:19:39.519Z,30.03
2018-06-01T12:20:42.006Z,29.77
2018-06-01T12:21:44.519Z,29.87
2018-06-01T12:22:47.033Z,29.13
2018-06-01T12:23:49.532Z,27.70
2018-06-01T12:24:52.038Z,29.33
2018-06-01T12:25:54.537Z,27.50
2018-06-01T12:26:57.049Z,25.83
2018-06-01T12:27:59.567Z,24.33
2018-06-01T12:29:02.086Z,26.50
2018-06-01T12:30:04.583Z,24.83
2018-06-01T12:31:07.066Z,24.80
2018-06-01T12:32:09.625Z,24.30
2018-06-01T12:33:12.144Z,24.30
2018-06-01T12:34:14.664Z,23.50
2018-06-01T12:35:17.173Z,23.57
2018-06-01T12:36:19.669Z,23.30
2018-06-01T12:37:22.180Z,23.73
2018-06-01T12:38:24.681Z,21.60
2018-06-01T12:39:27.171Z,21.20
2018-06-01T12:40:29.673Z,20.87
2018-06-01T12:41:32.175Z,19.87
2018-06-01T12:42:34.693Z,19.13
2018-06-01T12:43:37.203Z,18.33
2018-06-01T12:44:39.726Z,18.80
2018-06-01T12:45:42.228Z,18.00
2018-06-01T12:46:44.760Z,16.37
2018-06-01T12:47:47.264Z,14.80
2018-06-01T12:48:49.869Z,13.63
2018-06-01T12:49:52.403Z,13.63
2018-06-01T12:50:54.908Z,12.40
2018-06-01T12:51:57.433Z,11.50
2018-06-01T12:52:59.947Z,10.77
2018-06-01T12:54:02.499Z,10.13
2018-06-01T12:55:04.953Z,10.07
2018-06-01T12:56:07.481Z,9.40
2018-06-01T12:57:09.977Z,8.43
2018-06-01T12:58:12.485Z,7.80
2018-06-01T12:59:14.957Z,8.10
2018-06-01T13:00:17.468Z,7.13
2018-06-01T13:01:19.987Z,7.83
2018-06-01T13:02:22.485Z,7.47
2018-06-01T13:03:25.940Z,7.53
2018-06-01T13:04:28.470Z,6.83
2018-06-01T13:05:30.973Z,7.37
2018-06-01T13:06:33.495Z,6.73
2018-06-01T13:07:35.993Z,7.03
2018-06-01T13:08:38.508Z,6.67
2018-06-01T13:09:41.020Z,6.27
2018-06-01T13:10:43.661Z,7.10
2018-06-01T13:11:46.137Z,6.97
2018-06-01T13:12:48.629Z,7.20
2018-06-01T13:13:51.130Z,6.73
2018-06-01T13:14:53.640Z,6.13
2018-06-01T13:15:56.139Z,6.30
2018-06-01T13:16:58.651Z,7.10
2018-06-01T13:18:01.149Z,6.30
2018-06-01T13:19:03.646Z,5.60
2018-06-01T13:20:06.123Z,6.00
2018-06-01T13:21:08.637Z,6.20
2018-06-01T13:22:11.148Z,7.07
2018-06-01T13:23:13.663Z,6.63
2018-06-01T13:24:16.145Z,7.30
2018-06-01T13:25:18.657Z,7.33
2018-06-01T13:26:21.147Z,7.20
2018-06-01T13:27:23.626Z,6.40